CDT,Max TemperatureF,Mean TemperatureF,Min TemperatureF,Max Dew PointF,MeanDew PointF,Min DewpointF,Max Humidity, Mean Humidity, Min Humidity, Max Sea Level PressureIn, Mean Sea Level PressureIn, Min Sea Level PressureIn, Max VisibilityMiles, Mean VisibilityMiles, Min VisibilityMiles, Max Wind SpeedMPH, Mean Wind SpeedMPH, Max Gust SpeedMPH,PrecipitationIn, CloudCover, Events, WindDirDegrees
2013-9-1,87,80,72,74,72,70,97,80,61,29.84,29.80,29.75,10,9,4,16,7,28,0.00,1,,213
2013-9-2,87,78,66,71,67,60,100,84,41,29.94,29.87,29.83,10,5,0,12,3,18,0.00,0,Fog,306
2013-9-3,84,72,59,63,60,57,96,72,41,30.08,30.02,29.95,10,10,7,8,3,,0.01,0,,350
2013-9-4,84,68,53,64,57,52,100,88,41,30.17,30.11,30.08,10,4,0,6,0,,0.00,0,Fog,56
2013-9-5,84,68,53,64,57,52,100,89,46,30.21,30.16,30.13,10,4,0,7,0,,0.01,1,Fog,97
2013-9-6,87,74,60,66,63,59,100,85,49,30.19,30.14,30.06,10,5,0,7,1,,0.00,1,Fog,150
2013-9-7,88,72,57,68,63,57,100,87,49,30.08,30.04,29.95,10,4,0,13,1,,0.01,0,Fog,236
2013-9-8,82,74,68,73,69,64,93,81,65,30.00,29.95,29.92,10,9,7,8,1,,0.00,2,,131
2013-9-9,93,81,69,79,72,69,100,82,52,29.99,29.96,29.93,10,6,1,12,2,,0.00,3,Thunderstorm,175
2013-9-10,91,81,71,74,72,70,97,77,53,30.12,30.07,30.01,10,7,2,13,4,22,0.00,1,,181
2013-9-11,95,82,70,72,70,65,93,72,38,30.15,30.10,30.04,10,8,5,9,5,,0.00,1,,201
2013-9-12,90,76,66,71,67,56,100,81,42,30.09,30.03,29.97,10,6,1,15,2,20,0.06,2,Rain-Thunderstorm,335
2013-9-13,77,64,53,56,50,46,90,62,37,30.11,30.07,30.03,10,10,10,13,6,20,0.00,2,,13
2013-9-14,75,58,42,52,46,43,100,77,34,30.17,30.11,30.06,10,8,0,6,1,,0.00,0,Fog,104
2013-9-15,80,62,44,58,50,43,100,77,42,30.11,30.07,30.03,10,8,1,10,2,16,0.01,1,,205
2013-9-16,75,68,62,64,60,57,100,80,59,30.24,30.19,30.09,10,9,5,12,5,,0.03,7,Rain,12
2013-9-17,80,67,55,68,60,55,97,78,54,30.23,30.16,30.09,10,9,4,9,3,,0.00,3,,83
2013-9-18,86,74,64,70,67,62,93,79,57,30.12,30.05,29.99,10,8,6,14,3,17,0.00,3,,164
2013-9-19,88,80,71,72,70,68,91,77,59,30.05,29.99,29.92,10,8,6,16,9,20,0.00,2,,190
2013-9-20,75,70,64,72,68,62,100,91,71,29.95,29.90,29.85,10,7,2,12,5,20,0.53,7,Rain-Thunderstorm,243
2013-9-21,73,62,50,59,51,47,100,73,41,29.94,29.91,29.88,10,9,2,15,7,22,0.01,1,,342
2013-9-22,77,60,44,53,48,44,100,80,31,30.02,29.96,29.93,10,6,0,10,1,,0.00,0,Fog,42
2013-9-23,77,60,42,56,47,43,100,86,37,30.04,29.99,29.94,10,4,0,12,1,,0.01,0,Fog,105
2013-9-24,81,64,48,67,56,48,100,88,61,29.97,29.91,29.83,10,6,0,14,2,23,0.00,3,Fog,154
2013-9-25,82,69,57,65,61,57,100,89,52,29.89,29.84,29.81,10,5,0,10,2,,0.01,3,Fog,76
2013-9-26,84,68,55,65,59,55,100,88,42,30.03,29.95,29.88,10,3,0,9,0,,0.00,1,Fog,110
2013-9-27,82,66,50,62,55,48,100,82,34,30.13,30.08,30.03,10,5,0,8,1,,0.01,1,Fog,125
2013-9-28,84,68,53,62,56,53,100,77,41,30.10,30.05,30.00,10,7,1,18,4,26,0.00,2,,175
2013-9-29,71,66,62,63,62,58,100,92,63,30.06,30.02,29.98,10,6,2,9,5,,0.26,8,Rain,266
2013-9-30,75,68,64,64,63,62,94,87,71,30.00,29.97,29.94,10,9,5,12,3,,0.00,8,,162